Time;durP1;ratioP1;P1;durP2;ratioP2;P2;SDS_P1;SDS_P2;PMS_P1;PMS_P2;Temp;Humidity;BMP_temperature;BMP_pressure;BME280_temperature;BME280_humidity;BME280_pressure;Samples;Min_cycle;Max_cycle;Signal;HPM_P1;HPM_P2
2023/08/23 00:01:55;;;;;;;9.20;8.30;;;;;;;28.51;39.59;100722.16;104019;1292;69352;-86
2023/08/23 00:04:20;;;;;;;9.60;8.70;;;;;;;28.51;39.54;100718.60;103924;1292;69256;-87
2023/08/23 00:06:46;;;;;;;9.30;8.40;;;;;;;28.50;39.48;100720.00;104019;1293;69160;-87
2023/08/23 00:09:11;;;;;;;9.80;8.80;;;;;;;28.50;39.50;100717.98;104009;1294;69584;-87
2023/08/23 00:14:17;;;;;;;9.80;8.70;;;;;;;28.50;39.72;100719.65;103948;1288;69242;-86
2023/08/23 00:16:43;;;;;;;10.60;8.20;;;;;;;28.49;39.69;100721.46;103820;1291;69238;-86
2023/08/23 00:19:08;;;;;;;10.40;8.40;;;;;;;28.49;39.55;100719.19;103924;1291;69358;-86
2023/08/23 00:21:34;;;;;;;8.90;8.10;;;;;;;28.50;39.45;100714.38;103961;1292;69289;-87
2023/08/23 00:23:59;;;;;;;9.00;8.10;;;;;;;28.49;39.67;100714.80;104040;1289;69299;-87
2023/08/23 00:26:25;;;;;;;10.30;8.20;;;;;;;28.49;39.57;100713.77;103773;1291;69268;-87
2023/08/23 00:28:50;;;;;;;9.80;8.60;;;;;;;28.50;39.64;100715.66;103969;1289;70292;-87
2023/08/23 00:31:16;;;;;;;9.70;8.70;;;;;;;28.49;39.53;100717.45;103917;1288;69285;-87
2023/08/23 00:33:41;;;;;;;9.50;8.60;;;;;;;28.48;39.66;100718.81;104086;1288;69301;-87
2023/08/23 00:36:07;;;;;;;9.50;8.50;;;;;;;28.48;39.77;100721.09;103884;1289;73413;-87
2023/08/23 00:38:41;;;;;;;9.20;8.10;;;;;;;28.48;39.96;100718.09;103944;1290;69087;-92
2023/08/23 00:41:06;;;;;;;10.10;8.40;;;;;;;28.48;39.62;100717.17;105199;1291;69233;-87
2023/08/23 00:43:32;;;;;;;9.20;8.30;;;;;;;28.48;39.61;100718.77;103919;1291;69310;-86
2023/08/23 00:45:57;;;;;;;9.50;8.60;;;;;;;28.48;39.71;100716.79;103989;1294;69285;-86
2023/08/23 00:48:23;;;;;;;9.00;8.10;;;;;;;28.48;39.61;100716.23;103954;1288;69210;-87
2023/08/23 00:50:48;;;;;;;9.70;8.70;;;;;;;28.48;39.72;100713.91;103831;1288;69375;-87
2023/08/23 00:53:14;;;;;;;9.10;8.20;;;;;;;28.48;39.52;100712.35;103598;1297;69371;-86
2023/08/23 00:55:39;;;;;;;9.90;8.90;;;;;;;28.48;39.83;100710.75;103999;1290;68392;-87
2023/08/23 00:58:05;;;;;;;10.00;8.50;;;;;;;28.47;39.62;100711.33;103919;1294;69132;-87
2023/08/23 01:00:31;;;;;;;8.80;8.00;;;;;;;28.47;39.57;100709.11;103842;1297;69730;-87
2023/08/23 01:02:56;;;;;;;9.20;8.00;;;;;;;28.47;39.53;100704.71;103968;1289;69528;-87
2023/08/23 01:08:29;;;;;;;9.00;8.10;;;;;;;28.46;39.85;100699.23;104093;1288;73048;-87
2023/08/23 01:11:13;;;;;;;9.40;8.50;;;;;;;28.45;39.81;100695.41;103897;1294;69142;-87
2023/08/23 01:13:41;;;;;;;9.40;8.50;;;;;;;28.45;39.72;100694.36;104017;1289;69230;-87
2023/08/23 01:16:11;;;;;;;10.10;8.90;;;;;;;28.45;39.72;100696.39;103906;1289;70323;-87
2023/08/23 01:18:37;;;;;;;9.30;8.50;;;;;;;28.45;39.66;100698.77;103987;1289;69228;-87
2023/08/23 01:21:02;;;;;;;10.10;8.40;;;;;;;28.44;39.79;100700.14;104176;1293;69185;-87
2023/08/23 01:23:30;;;;;;;9.20;8.30;;;;;;;28.44;39.79;100700.70;103907;1289;69269;-92
2023/08/23 01:25:56;;;;;;;8.70;7.90;;;;;;;28.44;39.70;100699.68;103821;1288;69341;-87
2023/08/23 01:28:21;;;;;;;10.60;8.70;;;;;;;28.43;39.65;100694.80;104082;1288;69288;-87
2023/08/23 01:30:47;;;;;;;9.00;8.10;;;;;;;28.43;39.78;100693.08;104149;1288;66676;-87
2023/08/23 01:33:33;;;;;;;9.50;8.50;;;;;;;28.43;39.82;100690.19;104043;1294;69268;-87
2023/08/23 01:36:02;;;;;;;9.20;8.30;;;;;;;28.43;39.65;100692.20;103920;1289;69235;-87
2023/08/23 01:38:27;;;;;;;9.10;8.20;;;;;;;28.42;39.76;100692.84;104184;1288;69036;-91
2023/08/23 01:40:53;;;;;;;10.20;8.40;;;;;;;28.43;39.63;100694.17;104366;1289;69259;-87
2023/08/23 01:43:18;;;;;;;10.70;8.80;;;;;;;28.42;39.73;100695.01;103978;1288;69784;-86
2023/08/23 01:45:44;;;;;;;9.60;8.40;;;;;;;28.42;39.73;100692.58;103900;1294;69196;-86
2023/08/23 01:48:10;;;;;;;9.90;8.80;;;;;;;28.42;39.62;100693.27;104163;1291;70548;-87
2023/08/23 01:50:35;;;;;;;9.30;8.50;;;;;;;28.42;39.67;100692.23;104121;1288;67296;-87
2023/08/23 01:53:00;;;;;;;9.50;8.60;;;;;;;28.42;39.67;100688.67;103934;1288;69435;-86
2023/08/23 01:55:26;;;;;;;9.30;8.20;;;;;;;28.42;39.68;100688.67;104017;1289;69369;-87
2023/08/23 01:57:51;;;;;;;9.20;8.30;;;;;;;28.41;39.73;100692.09;104086;1288;69261;-87
2023/08/23 02:00:17;;;;;;;9.00;8.00;;;;;;;28.41;39.69;100693.71;104153;1288;69353;-87
2023/08/23 02:02:42;;;;;;;8.80;8.00;;;;;;;28.41;39.67;100694.17;104134;1289;70603;-87
2023/08/23 02:07:41;;;;;;;9.70;8.40;;;;;;;28.41;39.66;100693.98;104184;1290;69204;-87
2023/08/23 02:10:07;;;;;;;11.00;8.50;;;;;;;28.41;39.66;100695.84;103940;1289;69203;-87
2023/08/23 02:12:33;;;;;;;8.70;7.80;;;;;;;28.40;39.80;100691.10;104094;1291;69276;-87
2023/08/23 02:14:58;;;;;;;9.30;8.40;;;;;;;28.40;39.72;100696.22;104028;1289;69190;-87
2023/08/23 02:17:24;;;;;;;9.00;8.10;;;;;;;28.40;39.72;100697.93;103959;1289;69151;-87
2023/08/23 02:19:49;;;;;;;11.00;8.30;;;;;;;28.40;39.66;100698.05;103892;1291;69294;-86
2023/08/23 02:22:15;;;;;;;9.70;8.80;;;;;;;28.39;39.80;100696.14;103929;1289;69262;-86
2023/08/23 02:24:40;;;;;;;9.30;8.40;;;;;;;28.39;39.68;100696.82;103822;1288;69326;-86
2023/08/23 02:27:06;;;;;;;9.30;8.40;;;;;;;28.39;39.67;100700.96;103964;1288;69253;-86
2023/08/23 02:29:31;;;;;;;8.50;7.70;;;;;;;28.39;39.78;100700.63;104000;1293;69256;-86
2023/08/23 02:31:57;;;;;;;9.30;8.40;;;;;;;28.39;39.68;100701.34;103894;1288;70319;-86
2023/08/23 02:34:23;;;;;;;9.10;8.30;;;;;;;28.38;39.73;100703.80;103982;1289;69214;-87
2023/08/23 02:36:48;;;;;;;9.50;8.00;;;;;;;28.38;39.54;100702.85;103961;1293;67852;-86
2023/08/23 02:39:14;;;;;;;9.40;8.50;;;;;;;28.38;39.69;100703.27;104037;1289;70006;-87
2023/08/23 02:41:40;;;;;;;9.30;8.10;;;;;;;28.37;39.65;100700.06;104079;1289;69255;-87
2023/08/23 02:44:05;;;;;;;10.40;8.10;;;;;;;28.37;39.58;100699.61;104000;1288;81415;-91
2023/08/23 02:46:31;;;;;;;9.60;8.60;;;;;;;28.37;39.60;100700.19;103759;1289;69262;-86
2023/08/23 02:48:56;;;;;;;10.90;8.70;;;;;;;28.36;39.48;100701.40;104046;1289;69297;-87
2023/08/23 02:51:22;;;;;;;8.60;7.80;;;;;;;28.37;39.59;100700.86;104306;1289;69259;-86
2023/08/23 02:53:47;;;;;;;9.30;8.10;;;;;;;28.36;39.77;100698.96;105137;1289;69180;-88
2023/08/23 02:56:13;;;;;;;9.00;8.10;;;;;;;28.37;39.66;100703.14;104386;1291;69259;-87
2023/08/23 02:58:38;;;;;;;10.40;8.30;;;;;;;28.36;39.65;100701.24;104008;1294;69281;-86
2023/08/23 03:01:04;;;;;;;8.90;7.70;;;;;;;28.36;39.56;100701.35;104024;1289;69145;-86
2023/08/23 03:03:29;;;;;;;8.80;8.00;;;;;;;28.36;39.56;100697.78;104029;1289;69307;-86
2023/08/23 03:05:56;;;;;;;8.60;7.80;;;;;;;28.36;39.59;100693.80;103877;1292;69137;-86
2023/08/23 03:08:22;;;;;;;8.60;7.70;;;;;;;28.35;39.63;100692.35;104128;1288;69279;-87
2023/08/23 03:10:48;;;;;;;9.40;7.90;;;;;;;28.36;39.60;100694.38;104205;1289;69275;-86
2023/08/23 03:13:13;;;;;;;9.10;8.20;;;;;;;28.36;39.49;100690.80;104229;1290;69253;-86
2023/08/23 03:15:39;;;;;;;9.20;8.00;;;;;;;28.35;39.62;100696.04;104234;1289;69726;-86
2023/08/23 03:18:04;;;;;;;9.80;7.50;;;;;;;28.35;39.56;100695.99;104247;1289;69297;-86
2023/08/23 03:20:30;;;;;;;11.50;7.80;;;;;;;28.33;39.37;100694.55;104241;1289;69138;-87
2023/08/23 03:25:35;;;;;;;11.10;8.00;;;;;;;28.29;38.89;100689.55;104169;1291;73435;-87
2023/08/23 03:28:01;;;;;;;58.60;10.80;;;;;;;28.25;38.62;100685.30;104147;1290;69285;-86
2023/08/23 03:30:27;;;;;;;52.30;10.60;;;;;;;28.21;38.41;100685.85;104045;1291;70431;-86
2023/08/23 03:32:52;;;;;;;40.60;9.90;;;;;;;28.18;38.39;100683.66;104076;1291;69264;-87
2023/08/23 03:35:17;;;;;;;34.40;9.00;;;;;;;28.15;38.40;100684.34;104177;1291;70473;-87
2023/08/23 03:37:43;;;;;;;20.30;8.00;;;;;;;28.11;38.37;100682.55;103952;1291;69168;-86
2023/08/23 03:40:09;;;;;;;13.70;8.40;;;;;;;28.09;38.30;100685.43;103871;1296;289847;-86
2023/08/23 03:42:35;;;;;;;15.30;7.90;;;;;;;28.06;38.10;100679.20;104027;1291;70298;-86
2023/08/23 03:45:00;;;;;;;14.90;8.20;;;;;;;28.04;38.13;100678.11;103951;1291;69437;-86
2023/08/23 03:47:26;;;;;;;14.30;8.00;;;;;;;28.01;38.14;100675.18;104141;1290;67523;-87
2023/08/23 03:50:01;;;;;;;12.00;7.70;;;;;;;28.00;38.12;100673.89;103804;1296;69163;-92
2023/08/23 03:52:28;;;;;;;11.70;7.40;;;;;;;27.98;38.09;100677.09;103851;1291;69205;-87
2023/08/23 03:54:54;;;;;;;13.30;8.30;;;;;;;27.96;38.18;100674.65;103987;1291;69180;-86
2023/08/23 03:57:20;;;;;;;23.40;13.90;;;;;;;27.96;38.19;100672.78;104060;1291;70324;-87
2023/08/23 03:59:48;;;;;;;19.50;13.10;;;;;;;27.96;38.09;100674.45;103884;1291;69193;-87
2023/08/23 04:02:14;;;;;;;14.30;11.50;;;;;;;27.95;38.08;100674.52;103887;1291;69320;-87
2023/08/23 04:04:39;;;;;;;12.90;10.00;;;;;;;27.94;38.01;100677.33;103806;1291;69200;-86
2023/08/23 04:07:07;;;;;;;14.00;9.20;;;;;;;27.94;38.04;100678.95;105244;1290;69255;-87
2023/08/23 04:09:33;;;;;;;14.30;8.60;;;;;;;27.94;37.94;100682.27;104204;1290;69216;-87
2023/08/23 04:11:58;;;;;;;9.80;8.30;;;;;;;27.95;37.94;100676.46;104426;1292;69258;-87
2023/08/23 04:14:24;;;;;;;12.00;8.10;;;;;;;27.94;37.97;100678.38;104756;1293;69358;-87
2023/08/23 04:16:53;;;;;;;10.80;8.10;;;;;;;27.93;37.93;100678.77;105080;1291;67698;-92
2023/08/23 04:19:18;;;;;;;11.30;7.80;;;;;;;27.92;37.90;100678.27;104212;1296;73634;-87
2023/08/23 04:21:46;;;;;;;9.80;7.60;;;;;;;27.92;37.77;100682.21;104024;1292;71080;-86
2023/08/23 04:24:12;;;;;;;12.40;7.80;;;;;;;27.92;37.77;100681.17;103872;1295;69314;-86
2023/08/23 04:26:38;;;;;;;10.60;7.30;;;;;;;27.92;37.72;100687.45;103916;1293;69269;-87
2023/08/23 04:29:04;;;;;;;16.60;7.90;;;;;;;27.90;37.84;100687.88;103831;1291;69227;-87
2023/08/23 04:31:30;;;;;;;13.90;7.80;;;;;;;27.90;37.82;100686.33;103719;1292;69348;-86
2023/08/23 04:33:55;;;;;;;11.00;7.90;;;;;;;27.91;37.78;100693.88;103820;1291;69185;-87
2023/08/23 04:36:21;;;;;;;8.50;7.70;;;;;;;27.92;37.78;100699.66;103836;1292;69302;-87
2023/08/23 04:38:47;;;;;;;13.70;7.80;;;;;;;27.92;37.70;100699.80;103738;1294;69191;-86
2023/08/23 04:41:12;;;;;;;11.30;8.10;;;;;;;27.91;37.64;100700.44;103661;1298;69168;-87
2023/08/23 04:43:55;;;;;;;11.00;7.60;;;;;;;27.90;37.57;100703.62;103672;1296;69283;-92
2023/08/23 04:46:20;;;;;;;12.20;7.90;;;;;;;27.89;37.61;100705.80;103645;1294;69159;-86
2023/08/23 04:48:46;;;;;;;12.00;7.70;;;;;;;27.89;37.59;100710.63;103962;1291;69593;-87
2023/08/23 04:51:11;;;;;;;12.20;7.80;;;;;;;27.89;37.65;100710.36;103882;1292;69245;-86
2023/08/23 04:53:37;;;;;;;12.50;7.70;;;;;;;27.89;37.65;100709.98;103791;1291;70243;-87
2023/08/23 04:56:03;;;;;;;15.70;7.80;;;;;;;27.89;37.67;100709.79;103915;1291;69279;-87
2023/08/23 04:58:32;;;;;;;15.10;7.90;;;;;;;27.89;37.58;100715.48;103759;1293;69276;-86
2023/08/23 05:01:09;;;;;;;17.10;7.50;;;;;;;27.89;37.65;100716.92;104678;1286;69144;-87
2023/08/23 05:03:35;;;;;;;15.40;7.80;;;;;;;27.90;37.63;100719.70;104520;1286;67415;-87
2023/08/23 05:06:00;;;;;;;14.70;7.70;;;;;;;27.91;37.80;100718.80;104451;1285;69189;-87
2023/08/23 05:08:27;;;;;;;15.60;7.90;;;;;;;27.91;37.93;100717.66;104562;1286;69531;-87
2023/08/23 05:10:53;;;;;;;12.90;7.60;;;;;;;27.92;37.86;100720.05;104666;1285;69238;-87
2023/08/23 05:13:19;;;;;;;11.30;7.60;;;;;;;27.91;37.85;100723.70;104063;1290;69300;-87
2023/08/23 05:15:46;;;;;;;11.10;8.40;;;;;;;27.92;38.02;100723.02;104653;1289;69265;-88
2023/08/23 05:18:12;;;;;;;15.70;10.30;;;;;;;27.92;37.92;100725.86;104341;1288;69266;-87
2023/08/23 05:20:40;;;;;;;11.40;8.90;;;;;;;27.91;37.81;100725.96;104557;1285;69217;-87
2023/08/23 05:23:06;;;;;;;12.90;8.00;;;;;;;27.92;37.84;100728.09;104564;1288;69695;-87
2023/08/23 05:25:39;;;;;;;11.90;8.10;;;;;;;27.92;37.84;100727.59;104048;1294;69444;-93
2023/08/23 05:28:05;;;;;;;11.40;7.40;;;;;;;27.92;37.87;100726.77;104289;1288;69363;-88
2023/08/23 05:30:31;;;;;;;13.50;7.50;;;;;;;27.94;37.99;100729.16;104517;1288;69221;-88
2023/08/23 05:32:56;;;;;;;22.00;8.40;;;;;;;27.95;37.86;100729.55;104346;1285;69337;-87
2023/08/23 05:35:22;;;;;;;20.70;8.00;;;;;;;27.94;37.84;100724.91;104473;1286;69363;-88
2023/08/23 05:37:48;;;;;;;18.30;7.70;;;;;;;27.94;37.93;100722.95;104518;1285;69266;-88
2023/08/23 05:40:13;;;;;;;12.40;7.60;;;;;;;27.95;37.98;100722.77;104296;1286;69198;-87
2023/08/23 05:42:39;;;;;;;14.90;7.30;;;;;;;27.95;37.83;100720.64;104500;1287;69301;-88
2023/08/23 05:45:05;;;;;;;17.60;7.40;;;;;;;27.96;37.79;100722.23;104412;1285;69195;-87
2023/08/23 05:47:30;;;;;;;14.90;7.50;;;;;;;27.96;37.89;100726.27;104473;1286;69367;-88
2023/08/23 05:49:55;;;;;;;17.10;7.90;;;;;;;27.96;37.93;100724.44;104368;1287;69288;-87
2023/08/23 05:54:57;;;;;;;16.60;7.70;;;;;;;27.97;38.03;100719.98;104482;1290;69134;-87
2023/08/23 05:57:23;;;;;;;14.20;8.00;;;;;;;27.97;37.97;100717.50;104449;1290;69273;-88
2023/08/23 05:59:48;;;;;;;10.40;7.00;;;;;;;27.98;38.09;100719.18;104349;1286;69244;-87
2023/08/23 06:02:14;;;;;;;14.10;7.50;;;;;;;27.98;37.94;100719.80;104597;1286;69189;-87
2023/08/23 06:04:39;;;;;;;15.90;7.00;;;;;;;27.98;37.96;100722.11;104722;1285;69215;-88
2023/08/23 06:07:05;;;;;;;13.00;7.00;;;;;;;27.99;37.95;100717.18;104404;1286;69205;-87
2023/08/23 06:09:32;;;;;;;11.60;6.90;;;;;;;28.00;37.66;100719.95;104578;1286;69170;-87
2023/08/23 06:11:59;;;;;;;12.80;6.40;;;;;;;28.01;37.86;100720.05;104526;1285;69029;-87
2023/08/23 06:14:25;;;;;;;9.80;6.80;;;;;;;28.01;37.91;100721.56;104465;1286;69312;-87
2023/08/23 06:16:51;;;;;;;12.60;7.20;;;;;;;28.02;37.70;100719.48;105180;1285;69250;-87
2023/08/23 06:19:26;;;;;;;12.40;6.80;;;;;;;28.03;37.74;100719.30;104952;1286;69242;-92
2023/08/23 06:21:52;;;;;;;11.30;6.80;;;;;;;28.05;37.55;100716.47;104331;1285;69371;-86
2023/08/23 06:24:17;;;;;;;10.30;7.10;;;;;;;28.06;37.62;100711.32;104537;1287;69273;-86
2023/08/23 06:26:44;;;;;;;15.00;7.00;;;;;;;28.08;37.42;100711.94;104616;1286;69382;-88
2023/08/23 06:29:09;;;;;;;12.10;6.70;;;;;;;28.10;37.45;100719.93;104610;1286;69279;-86
2023/08/23 06:31:35;;;;;;;14.60;6.90;;;;;;;28.11;37.46;100724.92;104555;1289;69234;-87
2023/08/23 06:34:00;;;;;;;10.50;7.10;;;;;;;28.12;37.28;100725.50;104418;1286;69261;-87
2023/08/23 06:36:26;;;;;;;14.90;7.20;;;;;;;28.13;37.59;100723.75;104486;1287;69361;-87
2023/08/23 06:38:51;;;;;;;12.70;7.10;;;;;;;28.14;37.38;100718.17;104523;1290;69327;-87
2023/08/23 06:41:19;;;;;;;15.10;7.90;;;;;;;28.16;37.37;100715.90;104516;1285;69359;-87
2023/08/23 06:43:46;;;;;;;13.20;7.50;;;;;;;28.16;37.35;100717.70;104605;1291;69264;-87
2023/08/23 06:48:52;;;;;;;11.60;6.80;;;;;;;28.20;37.21;100717.13;104310;1287;69280;-87
2023/08/23 06:51:18;;;;;;;14.10;7.20;;;;;;;28.21;37.18;100716.95;104492;1286;69259;-87
2023/08/23 06:53:44;;;;;;;11.80;6.90;;;;;;;28.22;37.20;100715.80;105247;1286;69180;-87
2023/08/23 06:56:11;;;;;;;9.60;6.60;;;;;;;28.24;37.17;100721.39;104515;1286;68862;-87
2023/08/23 06:58:37;;;;;;;13.40;6.50;;;;;;;28.26;37.08;100720.56;104447;1285;69272;-87
2023/08/23 07:01:05;;;;;;;11.80;7.20;;;;;;;28.28;37.01;100720.69;104164;1285;69375;-87
2023/08/23 07:03:37;;;;;;;9.20;6.40;;;;;;;28.30;37.09;100719.20;104263;1284;67684;-86
2023/08/23 07:06:03;;;;;;;15.00;7.20;;;;;;;28.32;37.14;100714.80;104379;1289;69258;-86
2023/08/23 07:08:28;;;;;;;12.20;7.60;;;;;;;28.33;36.94;100710.94;104270;1290;67930;-87
2023/08/23 07:10:54;;;;;;;9.50;7.50;;;;;;;28.33;36.87;100711.31;104476;1291;69381;-87
2023/08/23 07:13:19;;;;;;;15.90;9.90;;;;;;;28.33;36.93;100710.52;104501;1286;69241;-87
2023/08/23 07:15:45;;;;;;;22.10;15.30;;;;;;;28.34;36.96;100710.98;104151;1290;80488;-87
2023/08/23 07:18:10;;;;;;;19.00;12.60;;;;;;;28.34;36.82;100709.47;104157;1290;69218;-87
2023/08/23 07:20:36;;;;;;;15.00;10.50;;;;;;;28.35;36.86;100708.52;104183;1288;67346;-87
2023/08/23 07:23:02;;;;;;;13.70;10.50;;;;;;;28.35;36.68;100709.28;104243;1288;69210;-87
2023/08/23 07:25:28;;;;;;;16.60;8.30;;;;;;;28.36;36.67;100709.93;104343;1289;69120;-87
2023/08/23 07:27:53;;;;;;;15.10;8.30;;;;;;;28.37;36.80;100710.55;104057;1290;69234;-87
2023/08/23 07:30:19;;;;;;;12.10;7.50;;;;;;;28.38;36.66;100711.35;104187;1291;69257;-87
2023/08/23 07:32:45;;;;;;;10.30;7.20;;;;;;;28.39;36.61;100709.88;104352;1289;69273;-88
2023/08/23 07:35:10;;;;;;;10.30;6.70;;;;;;;28.39;36.36;100714.05;104706;1289;68178;-87
2023/08/23 07:37:36;;;;;;;13.70;7.70;;;;;;;28.40;36.36;100710.45;104445;1292;69225;-87
2023/08/23 07:42:34;;;;;;;11.00;7.00;;;;;;;28.42;36.44;100718.99;104647;1284;556722;-88
2023/08/23 07:45:00;;;;;;;12.00;7.00;;;;;;;28.42;36.60;100719.91;104555;1290;69250;-87
2023/08/23 07:47:26;;;;;;;9.30;7.00;;;;;;;28.43;36.51;100715.70;104734;1290;69208;-87
2023/08/23 07:49:51;;;;;;;11.30;7.30;;;;;;;28.43;36.63;100716.42;105102;1286;69259;-87
2023/08/23 07:52:17;;;;;;;13.10;6.80;;;;;;;28.44;36.42;100718.81;104539;1286;69196;-88
2023/08/23 07:54:42;;;;;;;17.50;7.80;;;;;;;28.46;36.34;100717.30;104291;1286;69372;-87
2023/08/23 07:57:08;;;;;;;20.10;7.60;;;;;;;28.47;36.57;100717.84;104557;1290;69273;-87
2023/08/23 07:59:33;;;;;;;21.50;7.10;;;;;;;28.48;36.37;100715.49;104402;1286;69407;-87
2023/08/23 08:02:00;;;;;;;17.40;7.40;;;;;;;28.49;36.30;100717.02;104685;1287;70423;-86
2023/08/23 08:04:25;;;;;;;21.60;8.10;;;;;;;28.50;36.39;100711.46;104954;1289;69135;-87
2023/08/23 08:09:24;;;;;;;17.00;7.00;;;;;;;28.53;36.59;100701.27;104637;1285;555069;-86
2023/08/23 08:11:50;;;;;;;19.60;7.60;;;;;;;28.55;36.42;100695.20;104476;1289;69214;-86
2023/08/23 08:14:16;;;;;;;20.60;10.40;;;;;;;28.56;36.40;100695.09;104342;1290;71024;-86
2023/08/23 08:16:41;;;;;;;16.80;11.00;;;;;;;28.58;36.44;100687.55;104355;1286;69183;-87
2023/08/23 08:19:07;;;;;;;22.00;12.70;;;;;;;28.58;36.47;100688.46;104323;1291;69387;-84
2023/08/23 08:21:32;;;;;;;17.60;10.70;;;;;;;28.59;36.48;100689.67;104136;1289;70271;-84
2023/08/23 08:23:58;;;;;;;15.80;9.60;;;;;;;28.60;36.66;100691.17;104246;1291;69240;-85
2023/08/23 08:26:24;;;;;;;12.30;9.50;;;;;;;28.61;36.75;100693.11;104651;1288;69345;-85
2023/08/23 08:28:50;;;;;;;14.10;9.50;;;;;;;28.61;36.68;100694.59;104738;1291;70424;-85
2023/08/23 08:31:16;;;;;;;13.30;8.70;;;;;;;28.61;36.57;100696.02;104421;1285;69269;-85
2023/08/23 08:33:42;;;;;;;16.20;8.40;;;;;;;28.63;36.65;100696.71;104361;1288;69167;-86
2023/08/23 08:36:07;;;;;;;10.30;7.50;;;;;;;28.63;36.67;100691.38;104375;1292;69355;-86
2023/08/23 08:38:33;;;;;;;14.90;8.10;;;;;;;28.65;36.81;100690.96;104684;1289;73759;-87
2023/08/23 08:40:59;;;;;;;10.50;7.30;;;;;;;28.65;36.72;100685.72;104592;1290;69623;-87
2023/08/23 08:43:24;;;;;;;9.90;7.80;;;;;;;28.67;36.58;100688.00;104630;1286;69463;-88
2023/08/23 08:45:58;;;;;;;9.80;7.90;;;;;;;28.69;36.46;100686.91;104470;1286;69152;-93
2023/08/23 08:48:24;;;;;;;12.30;7.70;;;;;;;28.71;36.46;100682.93;104449;1290;69202;-87
2023/08/23 08:50:50;;;;;;;12.90;7.70;;;;;;;28.74;36.30;100679.21;104479;1287;69253;-88
2023/08/23 08:53:16;;;;;;;11.90;9.40;;;;;;;28.76;36.42;100675.92;104322;1292;69278;-88
2023/08/23 08:55:42;;;;;;;15.80;14.10;;;;;;;28.78;36.27;100672.48;104370;1288;69365;-88
2023/08/23 08:58:08;;;;;;;15.40;13.40;;;;;;;28.80;36.36;100670.24;104469;1289;69176;-88
2023/08/23 09:00:34;;;;;;;16.90;12.80;;;;;;;28.82;36.40;100666.30;104516;1288;69285;-88
2023/08/23 09:02:59;;;;;;;15.30;12.40;;;;;;;28.84;36.36;100664.55;104291;1291;69254;-88
2023/08/23 09:05:25;;;;;;;18.10;12.50;;;;;;;28.86;36.09;100660.92;104443;1288;69221;-87
2023/08/23 09:07:50;;;;;;;18.20;14.70;;;;;;;28.87;36.12;100659.64;104593;1285;69339;-88
2023/08/23 09:10:16;;;;;;;19.10;17.10;;;;;;;28.88;36.11;100660.30;105089;1286;69144;-87
2023/08/23 09:12:50;;;;;;;18.00;15.00;;;;;;;28.89;36.20;100657.39;104445;1285;69247;-93
2023/08/23 09:15:23;;;;;;;19.30;13.10;;;;;;;28.91;36.03;100659.84;104286;1288;67695;-88
2023/08/23 09:17:51;;;;;;;16.50;10.60;;;;;;;28.94;35.92;100654.45;104449;1286;69167;-88
2023/08/23 09:20:17;;;;;;;12.90;8.70;;;;;;;28.97;35.88;100650.17;104494;1290;67082;-88
2023/08/23 09:22:42;;;;;;;10.90;8.60;;;;;;;29.00;35.99;100649.05;104402;1286;69161;-88
2023/08/23 09:25:08;;;;;;;9.80;8.20;;;;;;;29.03;35.91;100645.29;104520;1291;69267;-88
2023/08/23 09:30:12;;;;;;;13.10;9.10;;;;;;;29.07;36.02;100643.73;104694;1285;69144;-88
2023/08/23 09:32:37;;;;;;;11.00;8.70;;;;;;;29.08;35.85;100634.40;104602;1285;69263;-88
2023/08/23 09:35:13;;;;;;;13.70;8.10;;;;;;;29.09;35.75;100628.79;104787;1288;68141;-88
2023/08/23 09:37:42;;;;;;;13.50;7.90;;;;;;;29.09;35.58;100626.81;104807;1285;74569;-88
2023/08/23 09:40:24;;;;;;;11.70;8.50;;;;;;;29.10;35.75;100627.34;105032;1291;69598;-88
2023/08/23 09:42:50;;;;;;;12.30;8.00;;;;;;;29.10;35.85;100626.09;104778;1291;69260;-89
2023/08/23 09:45:17;;;;;;;13.10;8.70;;;;;;;29.11;35.72;100624.27;104656;1291;69180;-88
2023/08/23 09:48:02;;;;;;;10.30;7.80;;;;;;;29.10;35.68;100623.81;105248;1288;69227;-88
2023/08/23 09:50:28;;;;;;;10.60;7.60;;;;;;;29.11;35.65;100624.15;104612;1291;74347;-87
2023/08/23 09:53:01;;;;;;;10.40;7.60;;;;;;;29.12;35.76;100622.21;104731;1286;69194;-88
2023/08/23 09:55:26;;;;;;;10.90;7.80;;;;;;;29.13;35.70;100616.06;104931;1285;69136;-88
2023/08/23 09:57:55;;;;;;;11.00;7.30;;;;;;;29.15;35.54;100615.48;105140;1285;69225;-87
2023/08/23 10:00:21;;;;;;;10.20;7.90;;;;;;;29.15;35.35;100609.45;104612;1285;69207;-87
2023/08/23 10:02:47;;;;;;;11.80;7.50;;;;;;;29.17;35.39;100605.05;104556;1286;69221;-87
2023/08/23 10:05:12;;;;;;;9.90;7.60;;;;;;;29.18;35.54;100597.75;104431;1285;69248;-87
2023/08/23 10:07:40;;;;;;;11.50;7.40;;;;;;;29.19;35.30;100596.66;104483;1285;69303;-88
2023/08/23 10:10:06;;;;;;;13.30;8.30;;;;;;;29.18;35.51;100594.02;104551;1286;69158;-87
2023/08/23 10:12:42;;;;;;;11.00;7.70;;;;;;;29.17;35.53;100589.91;104527;1288;69220;-92
2023/08/23 10:15:08;;;;;;;13.30;8.10;;;;;;;29.18;35.52;100586.58;104362;1285;73558;-87
2023/08/23 10:17:37;;;;;;;10.70;7.90;;;;;;;29.20;35.60;100586.08;104322;1292;69247;-88
2023/08/23 10:20:09;;;;;;;15.60;8.00;;;;;;;29.22;35.63;100581.69;104955;1288;69119;-87
2023/08/23 10:22:36;;;;;;;12.50;7.90;;;;;;;29.24;35.57;100579.06;104307;1289;69087;-87
2023/08/23 10:25:22;;;;;;;12.10;7.20;;;;;;;29.28;35.50;100570.29;104515;1286;69222;-87
2023/08/23 10:27:49;;;;;;;11.40;7.80;;;;;;;29.31;35.61;100572.30;104619;1288;74433;-88
2023/08/23 10:30:36;;;;;;;11.30;7.30;;;;;;;29.35;35.45;100573.91;104466;1289;69240;-87
2023/08/23 10:33:13;;;;;;;13.40;7.40;;;;;;;29.39;35.51;100571.91;104135;1293;69118;-87
2023/08/23 10:35:40;;;;;;;13.60;7.20;;;;;;;29.45;35.25;100565.48;104089;1293;69741;-87
2023/08/23 10:38:06;;;;;;;12.10;6.80;;;;;;;29.48;35.07;100562.48;104170;1291;69203;-87
2023/08/23 10:40:32;;;;;;;10.70;7.40;;;;;;;29.50;35.08;100561.41;104179;1290;69249;-87
2023/08/23 10:42:58;;;;;;;13.40;7.20;;;;;;;29.54;35.15;100558.14;104260;1300;69269;-87
2023/08/23 10:45:47;;;;;;;14.20;7.80;;;;;;;29.57;34.95;100557.57;104300;1293;67455;-92
2023/08/23 10:48:12;;;;;;;11.40;7.60;;;;;;;29.60;34.95;100559.85;104129;1288;69152;-87
2023/08/23 10:50:39;;;;;;;11.90;7.30;;;;;;;29.62;34.80;100555.77;104599;1291;69204;-87
2023/08/23 10:53:04;;;;;;;12.30;7.30;;;;;;;29.63;34.73;100556.53;104705;1295;67112;-87
2023/08/23 10:55:30;;;;;;;10.00;7.60;;;;;;;29.62;34.63;100550.52;104602;1289;69726;-87
2023/08/23 10:57:56;;;;;;;9.10;7.30;;;;;;;29.61;34.95;100545.09;104409;1292;69253;-87
2023/08/23 11:00:30;;;;;;;10.10;7.80;;;;;;;29.62;34.92;100540.95;104204;1294;69411;-92
2023/08/23 11:02:56;;;;;;;14.00;7.60;;;;;;;29.63;34.93;100537.98;103948;1291;73731;-87
2023/08/23 11:05:21;;;;;;;11.40;7.80;;;;;;;29.62;34.58;100531.55;104250;1292;69493;-87
2023/08/23 11:07:47;;;;;;;8.70;7.60;;;;;;;29.62;34.65;100530.64;104185;1289;69388;-87
2023/08/23 11:10:12;;;;;;;9.30;7.70;;;;;;;29.60;34.72;100530.95;104032;1295;69239;-86
2023/08/23 11:12:38;;;;;;;12.10;7.30;;;;;;;29.61;34.63;100526.42;104436;1298;68252;-86
2023/08/23 11:15:04;;;;;;;9.70;7.40;;;;;;;29.62;34.63;100521.35;103974;1290;69279;-87
2023/08/23 11:17:30;;;;;;;10.80;7.70;;;;;;;29.63;34.54;100522.00;104101;1290;69263;-88
2023/08/23 11:19:55;;;;;;;9.80;7.40;;;;;;;29.63;34.82;100516.65;104016;1294;69363;-88
2023/08/23 11:22:24;;;;;;;10.80;7.60;;;;;;;29.63;34.71;100514.52;104410;1289;67198;-87
2023/08/23 11:24:50;;;;;;;11.80;7.50;;;;;;;29.63;34.80;100513.86;104094;1289;69184;-87
2023/08/23 11:27:16;;;;;;;12.20;7.60;;;;;;;29.63;34.66;100512.49;105005;1290;69308;-88
2023/08/23 11:29:42;;;;;;;9.90;8.00;;;;;;;29.63;34.54;100508.66;104246;1290;69348;-88
2023/08/23 11:32:08;;;;;;;11.90;7.30;;;;;;;29.63;34.48;100508.95;103901;1290;69258;-87
2023/08/23 11:34:33;;;;;;;9.90;7.40;;;;;;;29.64;34.43;100502.61;104081;1290;69278;-88